ECV weather

Cuatro Vientos Airport
Madrid, Madrid, Spain

Public forecast

Using degrees Celsius for public forecast. Weather courtesy of forecast.io.

Closest aviation weather report (METAR) to Cuatro Vientos Airport

Closest report is Getafe Air Base, 5.4 nm (10.0 km) SSE. Retrieved 2019/10/19 05:00 UTC (37 minutes ago):

LEGT 190500Z 22007KT 9999 SCT041 12/09 Q1012

Closest aviation forecast (TAF) to Cuatro Vientos Airport

Forecast is more than 12 hours old.

Closest forecast is Getafe Air Base, 5.4 nm (10.0 km) SSE. Retrieved 2018/03/28 12:33 UTC (2 years ago):

TAF LEGT 281100Z 2812/2824 24010KT CAVOK PROB40 TEMPO 2814/2818 27015G25KT TEMPO 2820/2824 28008KT